sensor_id;sensor_type;location;lat;lon;timestamp;pressure;altitude;pressure_sealevel;temperature;humidity
73306;BME280;61530;51.158;0.880;2023-09-07T00:00:21;1015.04;;;19.5;41.8721
73306;BME280;61530;51.158;0.880;2023-09-07T00:01:22;1015.02;;;19.5;41.8896
73306;BME280;61530;51.158;0.880;2023-09-07T00:02:28;1014.99;;;19.5;42.428
73306;BME280;61530;51.158;0.880;2023-09-07T00:03:34;1014.99;;;19.5625;42.4337
73306;BME280;61530;51.158;0.880;2023-09-07T00:04:34;1014.98;;;19.5625;42.2761
73306;BME280;61530;51.158;0.880;2023-09-07T00:05:40;1014.97;;;19.4375;41.8078
73306;BME280;61530;51.158;0.880;2023-09-07T00:06:45;1014.94;;;19.4375;42.2467
73306;BME280;61530;51.158;0.880;2023-09-07T00:07:46;1014.95;;;19.3125;42.1471
73306;BME280;61530;51.158;0.880;2023-09-07T00:08:52;1014.95;;;19.375;42.0654
73306;BME280;61530;51.158;0.880;2023-09-07T00:09:57;1014.94;;;19.3125;42.0419
73306;BME280;61530;51.158;0.880;2023-09-07T00:11:03;1014.93;;;19.3125;42.3054
73306;BME280;61530;51.158;0.880;2023-09-07T00:12:04;1014.9;;;19.25;42.1122
73306;BME280;61530;51.158;0.880;2023-09-07T00:13:10;1014.93;;;19.25;42.083
73306;BME280;61530;51.158;0.880;2023-09-07T00:14:10;1014.89;;;19.25;42.6559
73306;BME280;61530;51.158;0.880;2023-09-07T00:15:16;1014.9;;;19.25;41.5092
73306;BME280;61530;51.158;0.880;2023-09-07T00:16:21;1014.89;;;19.1875;43.7252
73306;BME280;61530;51.158;0.880;2023-09-07T00:17:22;1014.88;;;19.125;43.1641
73306;BME280;61530;51.158;0.880;2023-09-07T00:18:28;1014.86;;;19.1875;42.4159
73306;BME280;61530;51.158;0.880;2023-09-07T00:19:34;1014.87;;;19.0625;44.6387
73306;BME280;61530;51.158;0.880;2023-09-07T00:20:34;1014.89;;;19.0;44.9419
73306;BME280;61530;51.158;0.880;2023-09-07T00:21:40;1014.88;;;19.0;44.1428
73306;BME280;61530;51.158;0.880;2023-09-07T00:22:40;1014.89;;;19.0;43.7708
73306;BME280;61530;51.158;0.880;2023-09-07T00:23:46;1014.91;;;18.9375;44.4233
73306;BME280;61530;51.158;0.880;2023-09-07T00:24:52;1014.89;;;18.9375;43.5015
73306;BME280;61530;51.158;0.880;2023-09-07T00:25:57;1014.88;;;18.875;42.6256
73306;BME280;61530;51.158;0.880;2023-09-07T00:26:58;1014.88;;;18.875;44.3126
73306;BME280;61530;51.158;0.880;2023-09-07T00:28:04;1014.84;;;18.8125;45.0529
73306;BME280;61530;51.158;0.880;2023-09-07T00:29:04;1014.84;;;18.8125;44.7724
73306;BME280;61530;51.158;0.880;2023-09-07T00:30:10;1014.84;;;18.75;44.6506
73306;BME280;61530;51.158;0.880;2023-09-07T00:31:10;1014.88;;;18.8125;43.783
73306;BME280;61530;51.158;0.880;2023-09-07T00:32:16;1014.87;;;18.8125;43.0588
73306;BME280;61530;51.158;0.880;2023-09-07T00:33:22;1014.86;;;18.75;43.2516
73306;BME280;61530;51.158;0.880;2023-09-07T00:34:28;1014.86;;;18.75;43.4621
73306;BME280;61530;51.158;0.880;2023-09-07T00:35:28;1014.84;;;18.6875;43.743
73306;BME280;61530;51.158;0.880;2023-09-07T00:36:34;1014.81;;;18.75;42.9773
73306;BME280;61530;51.158;0.880;2023-09-07T00:37:40;1014.84;;;18.6875;42.0534
73306;BME280;61530;51.158;0.880;2023-09-07T00:38:45;1014.84;;;18.6875;42.5273
73306;BME280;61530;51.158;0.880;2023-09-07T00:39:46;1014.84;;;18.6875;42.82
73306;BME280;61530;51.158;0.880;2023-09-07T00:40:52;1014.84;;;18.625;42.8256
73306;BME280;61530;51.158;0.880;2023-09-07T00:41:52;1014.88;;;18.625;43.3285
73306;BME280;61530;51.158;0.880;2023-09-07T00:42:59;1014.89;;;18.5;42.8426
73306;BME280;61530;51.158;0.880;2023-09-07T00:44:04;1014.85;;;18.5;42.5913
73306;BME280;61530;51.158;0.880;2023-09-07T00:45:10;1014.86;;;18.5;43.3622
73306;BME280;61530;51.158;0.880;2023-09-07T00:46:10;1014.87;;;18.5625;42.9829
73306;BME280;61530;51.158;0.880;2023-09-07T00:47:16;1014.86;;;18.5625;42.9419
73306;BME280;61530;51.158;0.880;2023-09-07T00:48:22;1014.87;;;18.5;43.3804
73306;BME280;61530;51.158;0.880;2023-09-07T00:49:22;1014.87;;;18.4375;43.2277
73306;BME280;61530;51.158;0.880;2023-09-07T00:50:28;1014.87;;;18.4375;43.3969
73306;BME280;61530;51.158;0.880;2023-09-07T00:51:34;1014.89;;;18.4375;43.2108
73306;BME280;61530;51.158;0.880;2023-09-07T00:52:35;1014.88;;;18.4375;42.8192
73306;BME280;61530;51.158;0.880;2023-09-07T00:53:40;1014.87;;;18.4375;43.0935
73306;BME280;61530;51.158;0.880;2023-09-07T00:54:45;1014.89;;;18.375;43.0179
73306;BME280;61530;51.158;0.880;2023-09-07T00:55:46;1014.88;;;18.4375;43.0998
73306;BME280;61530;51.158;0.880;2023-09-07T00:56:52;1014.86;;;18.4375;43.4448
73306;BME280;61530;51.158;0.880;2023-09-07T00:57:57;1014.87;;;18.375;42.9421
73306;BME280;61530;51.158;0.880;2023-09-07T00:58:58;1014.88;;;18.375;43.1644
73306;BME280;61530;51.158;0.880;2023-09-07T01:00:05;1014.89;;;18.375;43.3629
73306;BME280;61530;51.158;0.880;2023-09-07T01:01:09;1014.88;;;18.3125;43.3633
73306;BME280;61530;51.158;0.880;2023-09-07T01:02:10;1014.9;;;18.3125;42.9421
73306;BME280;61530;51.158;0.880;2023-09-07T01:03:16;1014.91;;;18.375;42.7783
73306;BME280;61530;51.158;0.880;2023-09-07T01:04:21;1014.9;;;18.3125;43.0238
73306;BME280;61530;51.158;0.880;2023-09-07T01:05:27;1014.9;;;18.3125;43.0001
73306;BME280;61530;51.158;0.880;2023-09-07T01:06:30;1014.93;;;18.3125;42.9303
73306;BME280;61530;51.158;0.880;2023-09-07T01:07:38;1014.92;;;18.3125;42.6262
73306;BME280;61530;51.158;0.880;2023-09-07T01:08:40;1014.9;;;18.3125;43.3865
73306;BME280;61530;51.158;0.880;2023-09-07T01:09:41;1014.94;;;18.4375;43.2226
73306;BME280;61530;51.158;0.880;2023-09-07T01:10:46;1014.92;;;18.375;43.3277
73306;BME280;61530;51.158;0.880;2023-09-07T01:11:47;1014.93;;;18.25;42.9709
73306;BME280;61530;51.158;0.880;2023-09-07T01:12:52;1014.9;;;18.25;43.2106
73306;BME280;61530;51.158;0.880;2023-09-07T01:13:57;1014.89;;;18.3125;43.0704
73306;BME280;61530;51.158;0.880;2023-09-07T01:14:58;1014.87;;;18.25;42.7372
73306;BME280;61530;51.158;0.880;2023-09-07T01:16:04;1014.84;;;18.25;43.3801
73306;BME280;61530;51.158;0.880;2023-09-07T01:17:05;1014.84;;;18.1875;43.4384
73306;BME280;61530;51.158;0.880;2023-09-07T01:18:10;1014.84;;;18.1875;42.8125
73306;BME280;61530;51.158;0.880;2023-09-07T01:19:16;1014.84;;;18.0625;43.1106
73306;BME280;61530;51.158;0.880;2023-09-07T01:20:16;1014.83;;;18.125;43.0115
73306;BME280;61530;51.158;0.880;2023-09-07T01:21:22;1014.83;;;18.1875;43.6311
73306;BME280;61530;51.158;0.880;2023-09-07T01:22:28;1014.82;;;18.25;43.7011
73306;BME280;61530;51.158;0.880;2023-09-07T01:23:34;1014.8;;;18.125;42.7077
73306;BME280;61530;51.158;0.880;2023-09-07T01:24:35;1014.8;;;18.0625;43.3154
73306;BME280;61530;51.158;0.880;2023-09-07T01:25:40;1014.79;;;18.0625;43.49
73306;BME280;61530;51.158;0.880;2023-09-07T01:26:46;1014.77;;;18.125;43.432
73306;BME280;61530;51.158;0.880;2023-09-07T01:27:46;1014.73;;;18.0625;43.7694
73306;BME280;61530;51.158;0.880;2023-09-07T01:28:52;1014.74;;;18.0625;44.3477
73306;BME280;61530;51.158;0.880;2023-09-07T01:29:57;1014.71;;;18.0;44.0784
73306;BME280;61530;51.158;0.880;2023-09-07T01:30:58;1014.72;;;17.9375;44.0782
73306;BME280;61530;51.158;0.880;2023-09-07T01:32:05;1014.7;;;18.0;44.0615
73306;BME280;61530;51.158;0.880;2023-09-07T01:33:04;1014.71;;;18.0625;44.1266
73306;BME280;61530;51.158;0.880;2023-09-07T01:34:10;1014.7;;;18.0;43.6945
73306;BME280;61530;51.158;0.880;2023-09-07T01:35:17;1014.7;;;18.0;44.1207
73306;BME280;61530;51.158;0.880;2023-09-07T01:36:22;1014.68;;;18.0625;43.3319
73306;BME280;61530;51.158;0.880;2023-09-07T01:37:22;1014.66;;;18.0625;43.8517
73306;BME280;61530;51.158;0.880;2023-09-07T01:38:28;1014.65;;;18.0;43.975
73306;BME280;61530;51.158;0.880;2023-09-07T01:39:28;1014.64;;;18.0;43.0809
73306;BME280;61530;51.158;0.880;2023-09-07T01:40:34;1014.61;;;17.875;44.4455
73306;BME280;61530;51.158;0.880;2023-09-07T01:41:40;1014.61;;;17.9375;44.1956
73306;BME280;61530;51.158;0.880;2023-09-07T01:42:45;1014.6;;;18.0;43.4541
73306;BME280;61530;51.158;0.880;2023-09-07T01:43:46;1014.59;;;17.9375;44.3005
73306;BME280;61530;51.158;0.880;2023-09-07T01:44:52;1014.57;;;17.875;44.7243
73306;BME280;61530;51.158;0.880;2023-09-07T01:45:57;1014.58;;;17.9375;44.6554
73306;BME280;61530;51.158;0.880;2023-09-07T01:46:58;1014.57;;;17.9375;44.644
73306;BME280;61530;51.158;0.880;2023-09-07T01:48:08;1014.59;;;18.0625;44.359
73306;BME280;61530;51.158;0.880;2023-09-07T01:49:04;1014.56;;;18.0;44.079
73306;BME280;61530;51.158;0.880;2023-09-07T01:50:10;1014.6;;;18.0;44.1672
73306;BME280;61530;51.158;0.880;2023-09-07T01:51:16;1014.54;;;17.875;44.3234
73306;BME280;61530;51.158;0.880;2023-09-07T01:52:21;1014.57;;;17.875;44.4048
73306;BME280;61530;51.158;0.880;2023-09-07T01:53:22;1014.57;;;17.875;45.006
73306;BME280;61530;51.158;0.880;2023-09-07T01:54:28;1014.55;;;17.875;44.469
73306;BME280;61530;51.158;0.880;2023-09-07T01:55:34;1014.55;;;17.75;44.6957
73306;BME280;61530;51.158;0.880;2023-09-07T01:56:34;1014.57;;;17.75;44.5735
73306;BME280;61530;51.158;0.880;2023-09-07T01:57:40;1014.56;;;17.8125;44.3707
73306;BME280;61530;51.158;0.880;2023-09-07T01:58:45;1014.56;;;17.75;44.2364
73306;BME280;61530;51.158;0.880;2023-09-07T01:59:46;1014.54;;;17.8125;44.8645
73306;BME280;61530;51.158;0.880;2023-09-07T02:00:48;1014.5;;;17.6875;44.9804
73306;BME280;61530;51.158;0.880;2023-09-07T02:01:54;1014.49;;;17.6875;44.6663
73306;BME280;61530;51.158;0.880;2023-09-07T02:03:00;1014.51;;;17.625;45.4927
73306;BME280;61530;51.158;0.880;2023-09-07T02:04:06;1014.49;;;17.625;44.7071
73306;BME280;61530;51.158;0.880;2023-09-07T02:05:06;1014.48;;;17.625;44.6546
73306;BME280;61530;51.158;0.880;2023-09-07T02:06:12;1014.48;;;17.625;44.4676
73306;BME280;61530;51.158;0.880;2023-09-07T02:07:17;1014.48;;;17.5625;44.969
73306;BME280;61530;51.158;0.880;2023-09-07T02:08:18;1014.47;;;17.5625;44.771
73306;BME280;61530;51.158;0.880;2023-09-07T02:09:18;1014.46;;;17.6875;44.8473
73306;BME280;61530;51.158;0.880;2023-09-07T02:10:24;1014.46;;;17.625;44.69
73306;BME280;61530;51.158;0.880;2023-09-07T02:11:30;1014.43;;;17.625;44.6712
73306;BME280;61530;51.158;0.880;2023-09-07T02:12:36;1014.44;;;17.625;44.9229
73306;BME280;61530;51.158;0.880;2023-09-07T02:13:42;1014.43;;;17.625;44.6311
73306;BME280;61530;51.158;0.880;2023-09-07T02:14:42;1014.46;;;17.75;45.0283
73306;BME280;61530;51.158;0.880;2023-09-07T02:15:48;1014.44;;;17.625;44.7542
73306;BME280;61530;51.158;0.880;2023-09-07T02:16:53;1014.49;;;17.6875;44.8127
73306;BME280;61530;51.158;0.880;2023-09-07T02:17:54;1014.49;;;17.625;45.0214
73306;BME280;61530;51.158;0.880;2023-09-07T02:19:02;1014.54;;;17.5625;45.4451
73306;BME280;61530;51.158;0.880;2023-09-07T02:20:00;1014.57;;;17.5;44.9602
73306;BME280;61530;51.158;0.880;2023-09-07T02:21:06;1014.53;;;17.5;45.3531
73306;BME280;61530;51.158;0.880;2023-09-07T02:22:12;1014.54;;;17.5;45.0503
73306;BME280;61530;51.158;0.880;2023-09-07T02:23:17;1014.55;;;17.4375;44.8642
73306;BME280;61530;51.158;0.880;2023-09-07T02:24:18;1014.58;;;17.5;44.5441
73306;BME280;61530;51.158;0.880;2023-09-07T02:25:24;1014.58;;;17.375;44.8241
73306;BME280;61530;51.158;0.880;2023-09-07T02:26:24;1014.59;;;17.5625;44.7832
73306;BME280;61530;51.158;0.880;2023-09-07T02:27:30;1014.64;;;17.5625;45.0844
73306;BME280;61530;51.158;0.880;2023-09-07T02:28:36;1014.67;;;17.4375;44.9625
73306;BME280;61530;51.158;0.880;2023-09-07T02:29:42;1014.67;;;17.5;44.9215
73306;BME280;61530;51.158;0.880;2023-09-07T02:30:42;1014.66;;;17.4375;44.8802
73306;BME280;61530;51.158;0.880;2023-09-07T02:31:48;1014.69;;;17.5;44.7348
73306;BME280;61530;51.158;0.880;2023-09-07T02:32:53;1014.65;;;17.4375;44.95
73306;BME280;61530;51.158;0.880;2023-09-07T02:33:54;1014.65;;;17.4375;45.0622
73306;BME280;61530;51.158;0.880;2023-09-07T02:35:00;1014.62;;;17.5;44.9278
73306;BME280;61530;51.158;0.880;2023-09-07T02:36:05;1014.6;;;17.5;45.1725
73306;BME280;61530;51.158;0.880;2023-09-07T02:37:06;1014.6;;;17.4375;44.5371
73306;BME280;61530;51.158;0.880;2023-09-07T02:38:12;1014.6;;;17.4375;44.59
73306;BME280;61530;51.158;0.880;2023-09-07T02:39:17;1014.57;;;17.5;44.4207
73306;BME280;61530;51.158;0.880;2023-09-07T02:40:18;1014.58;;;17.4375;43.7445
73306;BME280;61530;51.158;0.880;2023-09-07T02:41:18;1014.58;;;17.5;44.2114
73306;BME280;61530;51.158;0.880;2023-09-07T02:42:24;1014.58;;;17.5625;44.4332
73306;BME280;61530;51.158;0.880;2023-09-07T02:43:24;1014.59;;;17.5;44.5269
73306;BME280;61530;51.158;0.880;2023-09-07T02:44:30;1014.55;;;17.4375;44.2349
73306;BME280;61530;51.158;0.880;2023-09-07T02:45:36;1014.53;;;17.4375;44.182
73306;BME280;61530;51.158;0.880;2023-09-07T02:46:42;1014.56;;;17.5;44.6141
73306;BME280;61530;51.158;0.880;2023-09-07T02:47:48;1014.56;;;17.375;44.229
73306;BME280;61530;51.158;0.880;2023-09-07T02:48:53;1014.53;;;17.375;44.5613
73306;BME280;61530;51.158;0.880;2023-09-07T02:49:54;1014.51;;;17.375;43.6628
73306;BME280;61530;51.158;0.880;2023-09-07T02:51:00;1014.52;;;17.375;44.2459
73306;BME280;61530;51.158;0.880;2023-09-07T02:52:01;1014.49;;;17.4375;44.7758
73306;BME280;61530;51.158;0.880;2023-09-07T02:53:06;1014.5;;;17.25;44.9149
73306;BME280;61530;51.158;0.880;2023-09-07T02:54:12;1014.51;;;17.25;45.0712
73306;BME280;61530;51.158;0.880;2023-09-07T02:55:17;1014.48;;;17.1875;45.0067
73306;BME280;61530;51.158;0.880;2023-09-07T02:56:18;1014.52;;;17.1875;45.8951
73306;BME280;61530;51.158;0.880;2023-09-07T02:57:24;1014.54;;;17.125;45.7255
73306;BME280;61530;51.158;0.880;2023-09-07T02:58:30;1014.55;;;17.0;45.1734
73306;BME280;61530;51.158;0.880;2023-09-07T02:59:30;1014.52;;;17.0;45.6363
73306;BME280;61530;51.158;0.880;2023-09-07T03:00:41;1014.53;;;16.9375;46.2528
73306;BME280;61530;51.158;0.880;2023-09-07T03:01:41;1014.52;;;17.0;45.7532
73306;BME280;61530;51.158;0.880;2023-09-07T03:02:42;1014.52;;;17.0625;46.1733
73306;BME280;61530;51.158;0.880;2023-09-07T03:03:48;1014.53;;;17.0;44.4174
73306;BME280;61530;51.158;0.880;2023-09-07T03:04:54;1014.52;;;17.0;44.5812
73306;BME280;61530;51.158;0.880;2023-09-07T03:05:54;1014.5;;;16.9375;44.5693
73306;BME280;61530;51.158;0.880;2023-09-07T03:07:01;1014.52;;;17.0;44.8596
73306;BME280;61530;51.158;0.880;2023-09-07T03:08:06;1014.5;;;17.0;45.9216
73306;BME280;61530;51.158;0.880;2023-09-07T03:09:06;1014.5;;;17.0;45.8357
73306;BME280;61530;51.158;0.880;2023-09-07T03:10:12;1014.49;;;16.9375;45.4977
73306;BME280;61530;51.158;0.880;2023-09-07T03:11:18;1014.45;;;16.9375;45.4874
73306;BME280;61530;51.158;0.880;2023-09-07T03:12:18;1014.45;;;17.0;45.3193
73306;BME280;61530;51.158;0.880;2023-09-07T03:13:24;1014.41;;;17.0625;45.4782
73306;BME280;61530;51.158;0.880;2023-09-07T03:14:29;1014.44;;;17.125;45.4301
73306;BME280;61530;51.158;0.880;2023-09-07T03:15:30;1014.41;;;17.125;45.6005
73306;BME280;61530;51.158;0.880;2023-09-07T03:16:36;1014.41;;;17.125;44.8782
73306;BME280;61530;51.158;0.880;2023-09-07T03:17:41;1014.41;;;17.125;44.7559
73306;BME280;61530;51.158;0.880;2023-09-07T03:18:42;1014.41;;;17.125;44.11
73306;BME280;61530;51.158;0.880;2023-09-07T03:19:48;1014.43;;;17.125;44.6931
73306;BME280;61530;51.158;0.880;2023-09-07T03:20:55;1014.43;;;17.0625;44.3496
73306;BME280;61530;51.158;0.880;2023-09-07T03:21:54;1014.42;;;17.1875;44.1514
73306;BME280;61530;51.158;0.880;2023-09-07T03:23:00;1014.43;;;17.1875;44.443
73306;BME280;61530;51.158;0.880;2023-09-07T03:24:00;1014.41;;;17.25;44.5131
73306;BME280;61530;51.158;0.880;2023-09-07T03:25:07;1014.42;;;17.3125;44.5878
73306;BME280;61530;51.158;0.880;2023-09-07T03:26:12;1014.41;;;17.1875;45.0005
73306;BME280;61530;51.158;0.880;2023-09-07T03:27:18;1014.43;;;17.125;45.8423
73306;BME280;61530;51.158;0.880;2023-09-07T03:28:18;1014.41;;;17.0625;43.2277
73306;BME280;61530;51.158;0.880;2023-09-07T03:29:24;1014.38;;;17.0625;46.1196
73306;BME280;61530;51.158;0.880;2023-09-07T03:30:29;1014.37;;;17.0;45.2591
73306;BME280;61530;51.158;0.880;2023-09-07T03:31:30;1014.36;;;17.0;45.0271
73306;BME280;61530;51.158;0.880;2023-09-07T03:32:36;1014.36;;;16.9375;45.527
73306;BME280;61530;51.158;0.880;2023-09-07T03:33:41;1014.34;;;17.0;46.891
73306;BME280;61530;51.158;0.880;2023-09-07T03:34:42;1014.32;;;17.125;47.007
73306;BME280;61530;51.158;0.880;2023-09-07T03:35:48;1014.3;;;17.125;46.2764
73306;BME280;61530;51.158;0.880;2023-09-07T03:36:48;1014.32;;;17.125;46.8919
73306;BME280;61530;51.158;0.880;2023-09-07T03:37:54;1014.3;;;17.1875;46.9381
73306;BME280;61530;51.158;0.880;2023-09-07T03:38:54;1014.28;;;17.1875;46.9439
73306;BME280;61530;51.158;0.880;2023-09-07T03:40:00;1014.28;;;17.25;46.9174
73306;BME280;61530;51.158;0.880;2023-09-07T03:41:06;1014.24;;;17.25;47.3674
73306;BME280;61530;51.158;0.880;2023-09-07T03:42:12;1014.24;;;17.3125;47.3162
73306;BME280;61530;51.158;0.880;2023-09-07T03:43:12;1014.23;;;17.25;47.7597
73306;BME280;61530;51.158;0.880;2023-09-07T03:44:18;1014.23;;;17.1875;48.8167
73306;BME280;61530;51.158;0.880;2023-09-07T03:45:24;1014.22;;;17.25;48.8065
73306;BME280;61530;51.158;0.880;2023-09-07T03:46:29;1014.23;;;17.125;48.7085
73306;BME280;61530;51.158;0.880;2023-09-07T03:47:30;1014.25;;;17.1875;49.0942
73306;BME280;61530;51.158;0.880;2023-09-07T03:48:36;1014.25;;;17.125;48.8811
73306;BME280;61530;51.158;0.880;2023-09-07T03:49:36;1014.24;;;17.1875;47.9865
73306;BME280;61530;51.158;0.880;2023-09-07T03:50:42;1014.23;;;17.25;49.6164
73306;BME280;61530;51.158;0.880;2023-09-07T03:51:48;1014.26;;;17.3125;48.0736
73306;BME280;61530;51.158;0.880;2023-09-07T03:52:54;1014.27;;;17.1875;47.6807
73306;BME280;61530;51.158;0.880;2023-09-07T03:53:54;1014.27;;;17.1875;47.7093
73306;BME280;61530;51.158;0.880;2023-09-07T03:55:00;1014.26;;;17.25;47.554
73306;BME280;61530;51.158;0.880;2023-09-07T03:56:02;1014.27;;;17.3125;47.4849
73306;BME280;61530;51.158;0.880;2023-09-07T03:57:06;1014.26;;;17.25;47.213
73306;BME280;61530;51.158;0.880;2023-09-07T03:58:12;1014.29;;;17.25;46.5794
73306;BME280;61530;51.158;0.880;2023-09-07T03:59:17;1014.27;;;17.25;46.8191
73306;BME280;61530;51.158;0.880;2023-09-07T04:00:18;1014.29;;;17.3125;46.9759
73306;BME280;61530;51.158;0.880;2023-09-07T04:01:24;1014.29;;;17.25;46.425
73306;BME280;61530;51.158;0.880;2023-09-07T04:02:29;1014.33;;;17.375;46.8862
73306;BME280;61530;51.158;0.880;2023-09-07T04:03:30;1014.32;;;17.375;46.1888
73306;BME280;61530;51.158;0.880;2023-09-07T04:04:36;1014.33;;;17.375;46.5008
73306;BME280;61530;51.158;0.880;2023-09-07T04:05:41;1014.29;;;17.3125;46.3621
73306;BME280;61530;51.158;0.880;2023-09-07T04:06:42;1014.28;;;17.4375;46.3757
73306;BME280;61530;51.158;0.880;2023-09-07T04:07:50;1014.27;;;17.4375;46.0265
73306;BME280;61530;51.158;0.880;2023-09-07T04:08:53;1014.33;;;17.3125;46.3155
73306;BME280;61530;51.158;0.880;2023-09-07T04:09:54;1014.33;;;17.375;46.6411
73306;BME280;61530;51.158;0.880;2023-09-07T04:11:04;1014.33;;;17.375;46.7904
73306;BME280;61530;51.158;0.880;2023-09-07T04:12:06;1014.33;;;17.375;46.3501
73306;BME280;61530;51.158;0.880;2023-09-07T04:13:06;1014.31;;;17.3125;46.7322
73306;BME280;61530;51.158;0.880;2023-09-07T04:14:12;1014.31;;;17.375;46.7552
73306;BME280;61530;51.158;0.880;2023-09-07T04:15:17;1014.28;;;17.25;46.2635
73306;BME280;61530;51.158;0.880;2023-09-07T04:16:18;1014.27;;;17.25;45.9433
73306;BME280;61530;51.158;0.880;2023-09-07T04:17:24;1014.26;;;17.25;46.1759
73306;BME280;61530;51.158;0.880;2023-09-07T04:18:30;1014.25;;;17.3125;46.1769
73306;BME280;61530;51.158;0.880;2023-09-07T04:19:30;1014.28;;;17.3125;46.7693
73306;BME280;61530;51.158;0.880;2023-09-07T04:20:36;1014.25;;;17.3125;45.897
73306;BME280;61530;51.158;0.880;2023-09-07T04:21:41;1014.26;;;17.25;45.9786
73306;BME280;61530;51.158;0.880;2023-09-07T04:22:42;1014.25;;;17.25;45.8105
73306;BME280;61530;51.158;0.880;2023-09-07T04:23:42;1014.23;;;17.25;45.502
73306;BME280;61530;51.158;0.880;2023-09-07T04:24:48;1014.22;;;17.3125;45.8751
73306;BME280;61530;51.158;0.880;2023-09-07T04:26:05;1014.23;;;17.375;45.6888
73306;BME280;61530;51.158;0.880;2023-09-07T04:27:01;1014.23;;;17.25;45.671
73306;BME280;61530;51.158;0.880;2023-09-07T04:28:06;1014.24;;;17.25;45.7697
73306;BME280;61530;51.158;0.880;2023-09-07T04:29:07;1014.24;;;17.125;45.4316
73306;BME280;61530;51.158;0.880;2023-09-07T04:30:12;1014.23;;;17.25;45.6419
73306;BME280;61530;51.158;0.880;2023-09-07T04:31:17;1014.21;;;17.1875;45.4146
73306;BME280;61530;51.158;0.880;2023-09-07T04:32:18;1014.2;;;17.25;46.5615
73306;BME280;61530;51.158;0.880;2023-09-07T04:33:24;1014.2;;;17.1875;45.5369
73306;BME280;61530;51.158;0.880;2023-09-07T04:34:29;1014.2;;;17.25;45.5079
73306;BME280;61530;51.158;0.880;2023-09-07T04:35:30;1014.19;;;17.125;45.0824
73306;BME280;61530;51.158;0.880;2023-09-07T04:36:36;1014.18;;;17.25;45.6355
73306;BME280;61530;51.158;0.880;2023-09-07T04:37:42;1014.16;;;17.25;45.3267
73306;BME280;61530;51.158;0.880;2023-09-07T04:38:42;1014.16;;;17.25;45.619
73306;BME280;61530;51.158;0.880;2023-09-07T04:39:50;1014.16;;;17.1875;45.4842
73306;BME280;61530;51.158;0.880;2023-09-07T04:40:48;1014.16;;;17.1875;45.6301
73306;BME280;61530;51.158;0.880;2023-09-07T04:41:54;1014.16;;;17.1875;45.3217
73306;BME280;61530;51.158;0.880;2023-09-07T04:43:00;1014.16;;;17.1875;45.3039
73306;BME280;61530;51.158;0.880;2023-09-07T04:44:06;1014.16;;;17.125;45.5833
73306;BME280;61530;51.158;0.880;2023-09-07T04:45:07;1014.14;;;17.0625;45.5351
73306;BME280;61530;51.158;0.880;2023-09-07T04:46:13;1014.17;;;17.125;46.2437
73306;BME280;61530;51.158;0.880;2023-09-07T04:47:17;1014.17;;;17.125;45.8895
73306;BME280;61530;51.158;0.880;2023-09-07T04:48:18;1014.15;;;17.125;46.3062
73306;BME280;61530;51.158;0.880;2023-09-07T04:49:24;1014.12;;;17.0625;46.1168
73306;BME280;61530;51.158;0.880;2023-09-07T04:50:30;1014.1;;;17.25;45.7796
73306;BME280;61530;51.158;0.880;2023-09-07T04:51:30;1014.12;;;17.125;45.5474
73306;BME280;61530;51.158;0.880;2023-09-07T04:52:36;1014.12;;;17.1875;45.8389
73306;BME280;61530;51.158;0.880;2023-09-07T04:53:41;1014.1;;;17.125;45.8845
73306;BME280;61530;51.158;0.880;2023-09-07T04:54:42;1014.11;;;17.125;46.0369
73306;BME280;61530;51.158;0.880;2023-09-07T04:55:48;1014.1;;;17.1875;46.3163
73306;BME280;61530;51.158;0.880;2023-09-07T04:56:53;1014.1;;;17.125;45.7799
73306;BME280;61530;51.158;0.880;2023-09-07T04:57:54;1014.13;;;17.125;47.1015
73306;BME280;61530;51.158;0.880;2023-09-07T04:59:00;1014.15;;;17.125;46.461
73306;BME280;61530;51.158;0.880;2023-09-07T05:00:00;1014.18;;;17.125;47.9112
73306;BME280;61530;51.158;0.880;2023-09-07T05:01:08;1014.16;;;17.1875;48.8724
73306;BME280;61530;51.158;0.880;2023-09-07T05:02:12;1014.16;;;17.0625;48.8182
73306;BME280;61530;51.158;0.880;2023-09-07T05:03:18;1014.16;;;17.125;48.7096
73306;BME280;61530;51.158;0.880;2023-09-07T05:04:18;1014.16;;;17.125;48.1381
73306;BME280;61530;51.158;0.880;2023-09-07T05:05:24;1014.19;;;17.0625;48.5751
73306;BME280;61530;51.158;0.880;2023-09-07T05:06:24;1014.19;;;17.1875;48.9594
73306;BME280;61530;51.158;0.880;2023-09-07T05:07:30;1014.21;;;17.125;49.6359
73306;BME280;61530;51.158;0.880;2023-09-07T05:08:36;1014.23;;;17.1875;49.4693
73306;BME280;61530;51.158;0.880;2023-09-07T05:09:42;1014.21;;;17.1875;48.6938
73306;BME280;61530;51.158;0.880;2023-09-07T05:10:42;1014.19;;;17.125;48.1692
73306;BME280;61530;51.158;0.880;2023-09-07T05:11:48;1014.18;;;17.1875;47.7447
73306;BME280;61530;51.158;0.880;2023-09-07T05:12:53;1014.2;;;17.1875;47.7956
73306;BME280;61530;51.158;0.880;2023-09-07T05:13:54;1014.19;;;17.3125;47.512
73306;BME280;61530;51.158;0.880;2023-09-07T05:14:54;1014.21;;;17.25;47.222
73306;BME280;61530;51.158;0.880;2023-09-07T05:16:00;1014.17;;;17.25;45.7325
73306;BME280;61530;51.158;0.880;2023-09-07T05:17:06;1014.16;;;17.25;46.6885
73306;BME280;61530;51.158;0.880;2023-09-07T05:18:12;1014.14;;;17.25;46.8328
73306;BME280;61530;51.158;0.880;2023-09-07T05:19:18;1014.15;;;17.25;46.9772
73306;BME280;61530;51.158;0.880;2023-09-07T05:20:18;1014.12;;;17.25;46.9198
73306;BME280;61530;51.158;0.880;2023-09-07T05:21:24;1014.12;;;17.375;46.8852
73306;BME280;61530;51.158;0.880;2023-09-07T05:22:29;1014.13;;;17.3125;47.0701
73306;BME280;61530;51.158;0.880;2023-09-07T05:23:30;1014.14;;;17.3125;46.4421
73306;BME280;61530;51.158;0.880;2023-09-07T05:24:38;1014.11;;;17.375;46.9775
73306;BME280;61530;51.158;0.880;2023-09-07T05:25:45;1014.12;;;17.3125;48.1501
73306;BME280;61530;51.158;0.880;2023-09-07T05:26:42;1014.06;;;17.4375;47.0126
73306;BME280;61530;51.158;0.880;2023-09-07T05:27:48;1014.08;;;17.4375;47.4665
73306;BME280;61530;51.158;0.880;2023-09-07T05:28:54;1014.09;;;17.3125;47.3439
73306;BME280;61530;51.158;0.880;2023-09-07T05:29:54;1014.04;;;17.375;47.5136
73306;BME280;61530;51.158;0.880;2023-09-07T05:31:00;1014.08;;;17.375;47.21